sensor_id;sensor_type;location;lat;lon;timestamp;P1;durP1;ratioP1;P2;durP2;ratioP2
38779;SDS011;29273;49.962;9.768;2024-01-30T00:02:09;6.35;;;4.43;;
38779;SDS011;29273;49.962;9.768;2024-01-30T00:04:35;6.05;;;4.22;;
38779;SDS011;29273;49.962;9.768;2024-01-30T00:07:00;6.90;;;4.60;;
38779;SDS011;29273;49.962;9.768;2024-01-30T00:09:26;6.32;;;4.38;;
38779;SDS011;29273;49.962;9.768;2024-01-30T00:11:51;7.55;;;4.20;;
38779;SDS011;29273;49.962;9.768;2024-01-30T00:14:17;7.22;;;4.57;;
38779;SDS011;29273;49.962;9.768;2024-01-30T00:16:42;6.47;;;4.28;;
38779;SDS011;29273;49.962;9.768;2024-01-30T00:19:08;6.43;;;4.43;;
38779;SDS011;29273;49.962;9.768;2024-01-30T00:21:33;7.35;;;4.22;;
38779;SDS011;29273;49.962;9.768;2024-01-30T00:23:59;5.55;;;4.00;;
38779;SDS011;29273;49.962;9.768;2024-01-30T00:26:25;7.90;;;4.20;;
38779;SDS011;29273;49.962;9.768;2024-01-30T00:28:50;4.43;;;3.53;;
38779;SDS011;29273;49.962;9.768;2024-01-30T00:31:16;5.32;;;3.85;;
38779;SDS011;29273;49.962;9.768;2024-01-30T00:33:41;7.10;;;4.70;;
38779;SDS011;29273;49.962;9.768;2024-01-30T00:36:07;5.07;;;4.13;;
38779;SDS011;29273;49.962;9.768;2024-01-30T00:38:34;6.30;;;4.20;;
38779;SDS011;29273;49.962;9.768;2024-01-30T00:41:00;6.68;;;4.47;;
38779;SDS011;29273;49.962;9.768;2024-01-30T00:43:27;5.40;;;4.28;;
38779;SDS011;29273;49.962;9.768;2024-01-30T00:45:52;6.20;;;4.03;;
38779;SDS011;29273;49.962;9.768;2024-01-30T00:48:19;6.97;;;4.28;;
38779;SDS011;29273;49.962;9.768;2024-01-30T00:50:44;6.43;;;4.15;;
38779;SDS011;29273;49.962;9.768;2024-01-30T00:53:10;6.60;;;4.05;;
38779;SDS011;29273;49.962;9.768;2024-01-30T00:55:36;6.32;;;4.30;;
38779;SDS011;29273;49.962;9.768;2024-01-30T00:58:01;6.38;;;4.10;;
38779;SDS011;29273;49.962;9.768;2024-01-30T01:00:28;5.95;;;3.85;;
38779;SDS011;29273;49.962;9.768;2024-01-30T01:02:54;6.53;;;4.40;;
38779;SDS011;29273;49.962;9.768;2024-01-30T01:05:20;5.55;;;4.30;;
38779;SDS011;29273;49.962;9.768;2024-01-30T01:07:46;6.90;;;4.22;;
38779;SDS011;29273;49.962;9.768;2024-01-30T01:10:13;6.65;;;4.18;;
38779;SDS011;29273;49.962;9.768;2024-01-30T01:12:39;7.50;;;4.47;;
38779;SDS011;29273;49.962;9.768;2024-01-30T01:15:05;5.72;;;4.00;;
38779;SDS011;29273;49.962;9.768;2024-01-30T01:17:34;5.95;;;4.30;;
38779;SDS011;29273;49.962;9.768;2024-01-30T01:20:00;6.32;;;4.25;;
38779;SDS011;29273;49.962;9.768;2024-01-30T01:22:25;4.85;;;3.92;;
38779;SDS011;29273;49.962;9.768;2024-01-30T01:24:51;6.10;;;4.10;;
38779;SDS011;29273;49.962;9.768;2024-01-30T01:27:16;7.22;;;4.07;;
38779;SDS011;29273;49.962;9.768;2024-01-30T01:29:41;5.90;;;4.07;;
38779;SDS011;29273;49.962;9.768;2024-01-30T01:32:08;5.38;;;3.60;;
38779;SDS011;29273;49.962;9.768;2024-01-30T01:34:33;5.97;;;4.05;;
38779;SDS011;29273;49.962;9.768;2024-01-30T01:36:59;6.82;;;4.53;;
38779;SDS011;29273;49.962;9.768;2024-01-30T01:39:25;5.05;;;3.80;;
38779;SDS011;29273;49.962;9.768;2024-01-30T01:41:51;5.05;;;3.72;;
38779;SDS011;29273;49.962;9.768;2024-01-30T01:44:17;5.75;;;3.78;;
38779;SDS011;29273;49.962;9.768;2024-01-30T01:46:43;5.95;;;3.95;;
38779;SDS011;29273;49.962;9.768;2024-01-30T01:49:09;6.93;;;4.13;;
38779;SDS011;29273;49.962;9.768;2024-01-30T01:51:35;6.65;;;3.85;;
38779;SDS011;29273;49.962;9.768;2024-01-30T01:54:02;5.47;;;3.83;;
38779;SDS011;29273;49.962;9.768;2024-01-30T01:56:30;8.25;;;3.95;;
38779;SDS011;29273;49.962;9.768;2024-01-30T01:58:58;5.15;;;3.80;;
38779;SDS011;29273;49.962;9.768;2024-01-30T02:01:25;5.35;;;3.80;;
38779;SDS011;29273;49.962;9.768;2024-01-30T02:03:52;4.85;;;3.70;;
38779;SDS011;29273;49.962;9.768;2024-01-30T02:06:18;5.22;;;4.10;;
38779;SDS011;29273;49.962;9.768;2024-01-30T02:08:44;6.07;;;3.75;;
38779;SDS011;29273;49.962;9.768;2024-01-30T02:11:09;5.50;;;3.67;;
38779;SDS011;29273;49.962;9.768;2024-01-30T02:13:36;5.45;;;3.90;;
38779;SDS011;29273;49.962;9.768;2024-01-30T02:16:02;5.35;;;3.88;;
38779;SDS011;29273;49.962;9.768;2024-01-30T02:18:27;5.35;;;3.92;;
38779;SDS011;29273;49.962;9.768;2024-01-30T02:21:16;4.82;;;3.95;;
38779;SDS011;29273;49.962;9.768;2024-01-30T02:23:43;5.63;;;3.63;;
38779;SDS011;29273;49.962;9.768;2024-01-30T02:26:09;4.82;;;3.40;;
38779;SDS011;29273;49.962;9.768;2024-01-30T02:28:35;5.60;;;3.88;;
38779;SDS011;29273;49.962;9.768;2024-01-30T02:31:00;4.80;;;3.60;;
38779;SDS011;29273;49.962;9.768;2024-01-30T02:33:26;4.65;;;3.55;;
38779;SDS011;29273;49.962;9.768;2024-01-30T02:35:51;5.38;;;3.75;;
38779;SDS011;29273;49.962;9.768;2024-01-30T02:38:17;5.03;;;3.42;;
38779;SDS011;29273;49.962;9.768;2024-01-30T02:40:42;4.28;;;3.33;;
38779;SDS011;29273;49.962;9.768;2024-01-30T02:43:08;6.03;;;3.50;;
38779;SDS011;29273;49.962;9.768;2024-01-30T02:45:33;4.78;;;3.45;;
38779;SDS011;29273;49.962;9.768;2024-01-30T02:47:59;5.10;;;3.38;;
38779;SDS011;29273;49.962;9.768;2024-01-30T02:50:24;7.18;;;3.78;;
38779;SDS011;29273;49.962;9.768;2024-01-30T02:52:50;5.35;;;3.83;;
38779;SDS011;29273;49.962;9.768;2024-01-30T02:55:15;4.03;;;3.35;;
38779;SDS011;29273;49.962;9.768;2024-01-30T02:57:44;4.57;;;3.90;;
38779;SDS011;29273;49.962;9.768;2024-01-30T03:00:10;5.75;;;3.70;;
38779;SDS011;29273;49.962;9.768;2024-01-30T03:02:36;4.20;;;3.40;;
38779;SDS011;29273;49.962;9.768;2024-01-30T03:05:02;4.65;;;3.28;;
38779;SDS011;29273;49.962;9.768;2024-01-30T03:07:31;4.75;;;3.58;;
38779;SDS011;29273;49.962;9.768;2024-01-30T03:09:56;4.38;;;3.30;;
38779;SDS011;29273;49.962;9.768;2024-01-30T03:12:22;4.20;;;3.45;;
38779;SDS011;29273;49.962;9.768;2024-01-30T03:14:47;5.75;;;3.60;;
38779;SDS011;29273;49.962;9.768;2024-01-30T03:17:14;4.38;;;3.55;;
38779;SDS011;29273;49.962;9.768;2024-01-30T03:19:40;5.03;;;3.40;;
38779;SDS011;29273;49.962;9.768;2024-01-30T03:22:05;5.65;;;3.70;;
38779;SDS011;29273;49.962;9.768;2024-01-30T03:24:31;5.13;;;3.25;;
38779;SDS011;29273;49.962;9.768;2024-01-30T03:26:56;5.13;;;3.88;;
38779;SDS011;29273;49.962;9.768;2024-01-30T03:29:22;5.22;;;3.45;;
38779;SDS011;29273;49.962;9.768;2024-01-30T03:31:47;5.63;;;3.85;;
38779;SDS011;29273;49.962;9.768;2024-01-30T03:34:13;4.28;;;3.47;;
38779;SDS011;29273;49.962;9.768;2024-01-30T03:36:39;6.50;;;3.78;;
38779;SDS011;29273;49.962;9.768;2024-01-30T03:39:04;5.00;;;3.58;;
38779;SDS011;29273;49.962;9.768;2024-01-30T03:41:30;5.30;;;3.55;;
38779;SDS011;29273;49.962;9.768;2024-01-30T03:43:55;5.20;;;3.58;;
38779;SDS011;29273;49.962;9.768;2024-01-30T03:46:20;3.88;;;3.22;;
38779;SDS011;29273;49.962;9.768;2024-01-30T03:48:46;5.57;;;3.72;;
38779;SDS011;29273;49.962;9.768;2024-01-30T03:51:11;5.30;;;3.65;;
38779;SDS011;29273;49.962;9.768;2024-01-30T03:53:42;5.03;;;3.67;;
38779;SDS011;29273;49.962;9.768;2024-01-30T03:56:09;5.63;;;3.63;;
38779;SDS011;29273;49.962;9.768;2024-01-30T03:58:35;5.28;;;3.78;;
38779;SDS011;29273;49.962;9.768;2024-01-30T04:01:01;4.65;;;3.60;;
38779;SDS011;29273;49.962;9.768;2024-01-30T04:03:26;5.32;;;3.55;;
38779;SDS011;29273;49.962;9.768;2024-01-30T04:05:52;4.50;;;3.33;;
38779;SDS011;29273;49.962;9.768;2024-01-30T04:08:18;5.38;;;3.30;;
38779;SDS011;29273;49.962;9.768;2024-01-30T04:10:44;5.60;;;3.38;;
38779;SDS011;29273;49.962;9.768;2024-01-30T04:13:09;5.60;;;3.70;;
38779;SDS011;29273;49.962;9.768;2024-01-30T04:15:35;4.35;;;3.55;;
38779;SDS011;29273;49.962;9.768;2024-01-30T04:18:00;4.43;;;3.22;;
38779;SDS011;29273;49.962;9.768;2024-01-30T04:20:26;5.30;;;3.40;;
38779;SDS011;29273;49.962;9.768;2024-01-30T04:22:52;4.97;;;3.47;;
38779;SDS011;29273;49.962;9.768;2024-01-30T04:25:17;4.53;;;3.45;;
38779;SDS011;29273;49.962;9.768;2024-01-30T04:27:43;4.80;;;3.35;;
38779;SDS011;29273;49.962;9.768;2024-01-30T04:30:08;4.30;;;3.60;;
38779;SDS011;29273;49.962;9.768;2024-01-30T04:32:35;4.72;;;3.60;;
38779;SDS011;29273;49.962;9.768;2024-01-30T04:35:01;4.40;;;3.15;;
38779;SDS011;29273;49.962;9.768;2024-01-30T04:37:27;3.67;;;3.17;;
38779;SDS011;29273;49.962;9.768;2024-01-30T04:39:52;4.43;;;3.22;;
38779;SDS011;29273;49.962;9.768;2024-01-30T04:42:18;6.13;;;3.35;;
38779;SDS011;29273;49.962;9.768;2024-01-30T04:44:43;4.75;;;3.22;;
38779;SDS011;29273;49.962;9.768;2024-01-30T04:47:09;5.15;;;3.38;;
38779;SDS011;29273;49.962;9.768;2024-01-30T04:49:40;4.03;;;3.40;;
38779;SDS011;29273;49.962;9.768;2024-01-30T04:52:06;4.25;;;3.47;;
38779;SDS011;29273;49.962;9.768;2024-01-30T04:54:32;5.43;;;3.58;;
38779;SDS011;29273;49.962;9.768;2024-01-30T04:56:57;5.38;;;3.13;;
38779;SDS011;29273;49.962;9.768;2024-01-30T04:59:23;3.97;;;3.08;;
38779;SDS011;29273;49.962;9.768;2024-01-30T05:01:49;5.07;;;3.40;;
38779;SDS011;29273;49.962;9.768;2024-01-30T05:04:14;5.43;;;3.50;;
38779;SDS011;29273;49.962;9.768;2024-01-30T05:06:40;4.38;;;3.42;;
38779;SDS011;29273;49.962;9.768;2024-01-30T05:09:05;5.05;;;3.67;;
38779;SDS011;29273;49.962;9.768;2024-01-30T05:11:31;4.72;;;3.72;;
38779;SDS011;29273;49.962;9.768;2024-01-30T05:14:01;4.75;;;3.30;;
38779;SDS011;29273;49.962;9.768;2024-01-30T05:16:27;5.57;;;3.72;;
38779;SDS011;29273;49.962;9.768;2024-01-30T05:18:52;4.75;;;3.40;;
38779;SDS011;29273;49.962;9.768;2024-01-30T05:21:18;4.28;;;3.28;;
38779;SDS011;29273;49.962;9.768;2024-01-30T05:23:44;5.80;;;3.47;;
38779;SDS011;29273;49.962;9.768;2024-01-30T05:26:09;4.53;;;3.50;;
38779;SDS011;29273;49.962;9.768;2024-01-30T05:28:35;4.35;;;3.08;;
38779;SDS011;29273;49.962;9.768;2024-01-30T05:31:01;6.40;;;3.80;;
38779;SDS011;29273;49.962;9.768;2024-01-30T05:33:27;4.93;;;3.58;;
38779;SDS011;29273;49.962;9.768;2024-01-30T05:35:53;4.70;;;3.50;;
38779;SDS011;29273;49.962;9.768;2024-01-30T05:38:19;4.82;;;3.55;;
38779;SDS011;29273;49.962;9.768;2024-01-30T05:40:45;5.05;;;3.50;;
38779;SDS011;29273;49.962;9.768;2024-01-30T05:43:11;5.15;;;3.60;;
38779;SDS011;29273;49.962;9.768;2024-01-30T05:45:37;5.20;;;3.50;;
38779;SDS011;29273;49.962;9.768;2024-01-30T05:48:02;4.93;;;3.65;;
38779;SDS011;29273;49.962;9.768;2024-01-30T05:50:28;4.53;;;3.35;;
38779;SDS011;29273;49.962;9.768;2024-01-30T05:52:54;5.00;;;3.72;;
38779;SDS011;29273;49.962;9.768;2024-01-30T05:55:19;5.03;;;3.47;;
38779;SDS011;29273;49.962;9.768;2024-01-30T05:57:45;5.90;;;3.80;;
38779;SDS011;29273;49.962;9.768;2024-01-30T06:00:10;5.47;;;3.80;;
38779;SDS011;29273;49.962;9.768;2024-01-30T06:02:36;6.80;;;4.45;;
38779;SDS011;29273;49.962;9.768;2024-01-30T06:05:02;5.45;;;4.00;;
38779;SDS011;29273;49.962;9.768;2024-01-30T06:07:27;6.90;;;4.35;;
38779;SDS011;29273;49.962;9.768;2024-01-30T06:09:53;6.70;;;4.10;;
38779;SDS011;29273;49.962;9.768;2024-01-30T06:12:18;6.97;;;4.00;;
38779;SDS011;29273;49.962;9.768;2024-01-30T06:14:44;5.80;;;4.25;;
38779;SDS011;29273;49.962;9.768;2024-01-30T06:17:09;5.70;;;3.85;;
38779;SDS011;29273;49.962;9.768;2024-01-30T06:19:37;6.03;;;4.00;;
38779;SDS011;29273;49.962;9.768;2024-01-30T06:22:03;4.95;;;3.90;;
38779;SDS011;29273;49.962;9.768;2024-01-30T06:24:29;6.10;;;4.53;;
38779;SDS011;29273;49.962;9.768;2024-01-30T06:26:55;5.82;;;4.30;;
38779;SDS011;29273;49.962;9.768;2024-01-30T06:29:20;6.85;;;4.28;;
38779;SDS011;29273;49.962;9.768;2024-01-30T06:31:46;5.53;;;4.43;;
38779;SDS011;29273;49.962;9.768;2024-01-30T06:34:11;5.53;;;4.45;;
38779;SDS011;29273;49.962;9.768;2024-01-30T06:36:37;6.07;;;4.40;;
38779;SDS011;29273;49.962;9.768;2024-01-30T06:39:03;7.13;;;4.57;;
38779;SDS011;29273;49.962;9.768;2024-01-30T06:41:29;5.93;;;4.40;;
38779;SDS011;29273;49.962;9.768;2024-01-30T06:43:55;5.95;;;4.00;;
38779;SDS011;29273;49.962;9.768;2024-01-30T06:46:21;6.57;;;3.88;;
38779;SDS011;29273;49.962;9.768;2024-01-30T06:48:46;7.65;;;4.53;;
38779;SDS011;29273;49.962;9.768;2024-01-30T06:51:12;7.32;;;4.32;;
38779;SDS011;29273;49.962;9.768;2024-01-30T06:53:37;7.45;;;4.57;;
38779;SDS011;29273;49.962;9.768;2024-01-30T06:56:03;8.48;;;4.72;;
38779;SDS011;29273;49.962;9.768;2024-01-30T06:58:28;8.00;;;4.65;;
38779;SDS011;29273;49.962;9.768;2024-01-30T07:00:54;7.68;;;4.63;;
38779;SDS011;29273;49.962;9.768;2024-01-30T07:03:20;8.00;;;4.85;;
38779;SDS011;29273;49.962;9.768;2024-01-30T07:05:45;9.00;;;5.20;;
38779;SDS011;29273;49.962;9.768;2024-01-30T07:08:11;9.98;;;5.32;;
38779;SDS011;29273;49.962;9.768;2024-01-30T07:10:36;7.93;;;5.38;;
38779;SDS011;29273;49.962;9.768;2024-01-30T07:13:02;8.60;;;4.90;;
38779;SDS011;29273;49.962;9.768;2024-01-30T07:15:29;9.10;;;5.20;;
38779;SDS011;29273;49.962;9.768;2024-01-30T07:17:54;8.27;;;5.32;;
38779;SDS011;29273;49.962;9.768;2024-01-30T07:20:20;7.53;;;4.80;;
38779;SDS011;29273;49.962;9.768;2024-01-30T07:22:45;7.13;;;4.88;;
38779;SDS011;29273;49.962;9.768;2024-01-30T07:25:11;7.63;;;4.80;;
38779;SDS011;29273;49.962;9.768;2024-01-30T07:27:36;7.63;;;4.63;;
38779;SDS011;29273;49.962;9.768;2024-01-30T07:30:02;6.68;;;4.65;;
38779;SDS011;29273;49.962;9.768;2024-01-30T07:32:28;8.38;;;5.00;;
38779;SDS011;29273;49.962;9.768;2024-01-30T07:34:53;6.88;;;4.85;;
38779;SDS011;29273;49.962;9.768;2024-01-30T07:37:18;7.93;;;4.60;;
38779;SDS011;29273;49.962;9.768;2024-01-30T07:39:44;5.82;;;4.47;;
38779;SDS011;29273;49.962;9.768;2024-01-30T07:42:10;5.60;;;4.05;;
38779;SDS011;29273;49.962;9.768;2024-01-30T07:44:35;5.65;;;4.30;;
38779;SDS011;29273;49.962;9.768;2024-01-30T07:47:01;5.65;;;4.03;;
38779;SDS011;29273;49.962;9.768;2024-01-30T07:49:28;6.97;;;3.88;;
38779;SDS011;29273;49.962;9.768;2024-01-30T07:51:53;6.78;;;4.38;;
38779;SDS011;29273;49.962;9.768;2024-01-30T07:54:19;6.57;;;4.30;;
38779;SDS011;29273;49.962;9.768;2024-01-30T07:56:44;6.35;;;3.92;;
38779;SDS011;29273;49.962;9.768;2024-01-30T07:59:10;5.97;;;4.28;;
38779;SDS011;29273;49.962;9.768;2024-01-30T08:01:37;7.05;;;4.20;;
38779;SDS011;29273;49.962;9.768;2024-01-30T08:04:03;5.53;;;3.70;;
38779;SDS011;29273;49.962;9.768;2024-01-30T08:06:28;4.75;;;3.70;;
38779;SDS011;29273;49.962;9.768;2024-01-30T08:08:54;6.03;;;3.75;;
38779;SDS011;29273;49.962;9.768;2024-01-30T08:11:20;5.50;;;3.90;;
38779;SDS011;29273;49.962;9.768;2024-01-30T08:13:51;5.63;;;4.03;;
38779;SDS011;29273;49.962;9.768;2024-01-30T08:16:17;4.82;;;3.75;;
38779;SDS011;29273;49.962;9.768;2024-01-30T08:18:43;4.80;;;3.75;;
38779;SDS011;29273;49.962;9.768;2024-01-30T08:21:08;4.88;;;3.60;;
38779;SDS011;29273;49.962;9.768;2024-01-30T08:23:34;5.03;;;3.80;;
38779;SDS011;29273;49.962;9.768;2024-01-30T08:25:59;5.70;;;3.97;;
38779;SDS011;29273;49.962;9.768;2024-01-30T08:28:25;5.00;;;3.80;;
38779;SDS011;29273;49.962;9.768;2024-01-30T08:30:51;5.03;;;3.60;;
38779;SDS011;29273;49.962;9.768;2024-01-30T08:33:17;4.38;;;3.80;;
38779;SDS011;29273;49.962;9.768;2024-01-30T08:35:42;4.85;;;3.72;;
38779;SDS011;29273;49.962;9.768;2024-01-30T08:38:08;6.70;;;3.97;;
38779;SDS011;29273;49.962;9.768;2024-01-30T08:40:34;6.15;;;4.05;;
38779;SDS011;29273;49.962;9.768;2024-01-30T08:43:00;4.80;;;3.60;;
38779;SDS011;29273;49.962;9.768;2024-01-30T08:45:25;4.43;;;3.72;;
38779;SDS011;29273;49.962;9.768;2024-01-30T08:47:51;6.18;;;3.55;;
38779;SDS011;29273;49.962;9.768;2024-01-30T08:50:16;5.82;;;3.80;;
38779;SDS011;29273;49.962;9.768;2024-01-30T08:52:42;4.28;;;3.25;;
38779;SDS011;29273;49.962;9.768;2024-01-30T08:55:07;5.47;;;3.88;;
38779;SDS011;29273;49.962;9.768;2024-01-30T08:57:33;5.97;;;3.58;;
38779;SDS011;29273;49.962;9.768;2024-01-30T08:59:58;4.97;;;3.33;;
38779;SDS011;29273;49.962;9.768;2024-01-30T09:02:24;4.90;;;3.50;;
38779;SDS011;29273;49.962;9.768;2024-01-30T09:04:49;4.40;;;3.38;;
38779;SDS011;29273;49.962;9.768;2024-01-30T09:07:15;4.95;;;3.55;;
38779;SDS011;29273;49.962;9.768;2024-01-30T09:09:41;4.43;;;3.42;;
38779;SDS011;29273;49.962;9.768;2024-01-30T09:12:06;5.15;;;3.70;;
38779;SDS011;29273;49.962;9.768;2024-01-30T09:14:34;4.80;;;3.63;;
38779;SDS011;29273;49.962;9.768;2024-01-30T09:17:01;5.35;;;3.72;;
38779;SDS011;29273;49.962;9.768;2024-01-30T09:19:26;5.00;;;3.85;;
38779;SDS011;29273;49.962;9.768;2024-01-30T09:21:52;5.18;;;3.97;;
38779;SDS011;29273;49.962;9.768;2024-01-30T09:24:17;5.93;;;4.18;;
38779;SDS011;29273;49.962;9.768;2024-01-30T09:26:43;5.25;;;4.05;;
38779;SDS011;29273;49.962;9.768;2024-01-30T09:29:08;6.03;;;3.97;;
38779;SDS011;29273;49.962;9.768;2024-01-30T09:31:33;5.72;;;4.53;;
38779;SDS011;29273;49.962;9.768;2024-01-30T09:33:59;6.25;;;4.80;;
38779;SDS011;29273;49.962;9.768;2024-01-30T09:36:24;6.60;;;4.30;;
38779;SDS011;29273;49.962;9.768;2024-01-30T09:38:50;6.25;;;4.85;;
38779;SDS011;29273;49.962;9.768;2024-01-30T09:41:16;7.13;;;4.88;;
38779;SDS011;29273;49.962;9.768;2024-01-30T09:43:45;7.22;;;5.05;;
38779;SDS011;29273;49.962;9.768;2024-01-30T09:46:14;6.65;;;4.70;;
38779;SDS011;29273;49.962;9.768;2024-01-30T09:48:41;7.50;;;5.00;;
38779;SDS011;29273;49.962;9.768;2024-01-30T09:51:08;6.68;;;4.47;;
38779;SDS011;29273;49.962;9.768;2024-01-30T09:53:35;6.75;;;5.00;;
38779;SDS011;29273;49.962;9.768;2024-01-30T09:56:02;6.60;;;4.97;;
38779;SDS011;29273;49.962;9.768;2024-01-30T09:58:28;6.43;;;4.70;;
38779;SDS011;29273;49.962;9.768;2024-01-30T10:00:53;6.95;;;5.22;;
38779;SDS011;29273;49.962;9.768;2024-01-30T10:03:19;6.05;;;5.05;;
38779;SDS011;29273;49.962;9.768;2024-01-30T10:05:46;7.07;;;5.00;;
38779;SDS011;29273;49.962;9.768;2024-01-30T10:08:19;6.88;;;5.13;;
38779;SDS011;29273;49.962;9.768;2024-01-30T10:10:48;6.47;;;5.00;;
38779;SDS011;29273;49.962;9.768;2024-01-30T10:13:15;7.65;;;5.78;;
38779;SDS011;29273;49.962;9.768;2024-01-30T10:15:41;6.60;;;4.75;;
38779;SDS011;29273;49.962;9.768;2024-01-30T10:18:07;8.80;;;5.18;;
38779;SDS011;29273;49.962;9.768;2024-01-30T10:20:35;5.88;;;4.57;;
38779;SDS011;29273;49.962;9.768;2024-01-30T10:23:01;7.85;;;4.82;;
38779;SDS011;29273;49.962;9.768;2024-01-30T10:25:26;6.38;;;4.63;;
38779;SDS011;29273;49.962;9.768;2024-01-30T10:27:52;6.32;;;4.53;;
38779;SDS011;29273;49.962;9.768;2024-01-30T10:30:20;5.90;;;4.68;;
38779;SDS011;29273;49.962;9.768;2024-01-30T10:32:46;7.53;;;5.15;;
38779;SDS011;29273;49.962;9.768;2024-01-30T10:35:12;5.80;;;4.57;;
38779;SDS011;29273;49.962;9.768;2024-01-30T10:37:37;6.57;;;4.97;;
38779;SDS011;29273;49.962;9.768;2024-01-30T10:40:03;5.90;;;4.38;;
38779;SDS011;29273;49.962;9.768;2024-01-30T10:42:31;6.35;;;4.50;;
38779;SDS011;29273;49.962;9.768;2024-01-30T10:47:57;5.03;;;4.20;;
38779;SDS011;29273;49.962;9.768;2024-01-30T10:50:26;4.78;;;3.83;;
38779;SDS011;29273;49.962;9.768;2024-01-30T10:52:53;5.43;;;3.85;;
38779;SDS011;29273;49.962;9.768;2024-01-30T10:55:21;7.47;;;3.58;;
38779;SDS011;29273;49.962;9.768;2024-01-30T10:57:47;4.82;;;4.10;;
38779;SDS011;29273;49.962;9.768;2024-01-30T11:00:13;7.30;;;4.45;;
38779;SDS011;29273;49.962;9.768;2024-01-30T11:02:45;6.85;;;4.50;;
38779;SDS011;29273;49.962;9.768;2024-01-30T11:05:12;4.83;;;4.17;;
38779;SDS011;29273;49.962;9.768;2024-01-30T11:07:41;5.72;;;4.70;;
38779;SDS011;29273;49.962;9.768;2024-01-30T11:10:06;5.03;;;3.90;;
38779;SDS011;29273;49.962;9.768;2024-01-30T11:12:37;6.82;;;4.65;;
38779;SDS011;29273;49.962;9.768;2024-01-30T11:20:10;6.10;;;4.47;;
38779;SDS011;29273;49.962;9.768;2024-01-30T11:22:56;5.35;;;4.50;;
38779;SDS011;29273;49.962;9.768;2024-01-30T11:25:23;5.13;;;3.90;;
38779;SDS011;29273;49.962;9.768;2024-01-30T11:27:53;5.38;;;3.95;;
38779;SDS011;29273;49.962;9.768;2024-01-30T11:30:26;4.20;;;3.78;;
38779;SDS011;29273;49.962;9.768;2024-01-30T11:33:00;5.55;;;3.92;;
38779;SDS011;29273;49.962;9.768;2024-01-30T11:35:30;5.50;;;4.32;;
38779;SDS011;29273;49.962;9.768;2024-01-30T11:37:58;5.57;;;4.32;;
38779;SDS011;29273;49.962;9.768;2024-01-30T11:40:25;5.68;;;4.10;;
38779;SDS011;29273;49.962;9.768;2024-01-30T11:42:55;5.28;;;4.30;;
38779;SDS011;29273;49.962;9.768;2024-01-30T11:45:21;4.82;;;3.92;;
38779;SDS011;29273;49.962;9.768;2024-01-30T11:47:47;6.03;;;4.32;;
38779;SDS011;29273;49.962;9.768;2024-01-30T11:50:13;5.13;;;4.10;;
38779;SDS011;29273;49.962;9.768;2024-01-30T11:52:39;4.35;;;3.90;;
38779;SDS011;29273;49.962;9.768;2024-01-30T11:55:05;6.53;;;4.80;;
38779;SDS011;29273;49.962;9.768;2024-01-30T11:57:31;5.07;;;4.32;;
38779;SDS011;29273;49.962;9.768;2024-01-30T11:59:56;8.40;;;4.07;;
38779;SDS011;29273;49.962;9.768;2024-01-30T12:02:22;6.57;;;4.65;;
38779;SDS011;29273;49.962;9.768;2024-01-30T12:04:47;7.07;;;4.78;;
38779;SDS011;29273;49.962;9.768;2024-01-30T12:07:13;5.70;;;4.40;;
38779;SDS011;29273;49.962;9.768;2024-01-30T12:09:41;5.45;;;4.20;;
38779;SDS011;29273;49.962;9.768;2024-01-30T12:12:07;6.10;;;4.38;;
38779;SDS011;29273;49.962;9.768;2024-01-30T12:14:37;6.10;;;4.75;;
38779;SDS011;29273;49.962;9.768;2024-01-30T12:17:04;7.25;;;4.82;;
38779;SDS011;29273;49.962;9.768;2024-01-30T12:19:29;5.45;;;4.22;;
38779;SDS011;29273;49.962;9.768;2024-01-30T12:21:58;5.93;;;4.10;;
38779;SDS011;29273;49.962;9.768;2024-01-30T12:24:27;5.38;;;4.18;;
38779;SDS011;29273;49.962;9.768;2024-01-30T12:26:59;5.00;;;4.50;;
38779;SDS011;29273;49.962;9.768;2024-01-30T12:29:25;5.28;;;4.07;;
38779;SDS011;29273;49.962;9.768;2024-01-30T12:31:54;5.13;;;4.25;;
38779;SDS011;29273;49.962;9.768;2024-01-30T12:34:20;5.25;;;3.83;;
38779;SDS011;29273;49.962;9.768;2024-01-30T12:36:48;5.22;;;4.32;;
38779;SDS011;29273;49.962;9.768;2024-01-30T12:39:15;6.03;;;4.13;;
38779;SDS011;29273;49.962;9.768;2024-01-30T12:41:41;5.25;;;4.05;;
38779;SDS011;29273;49.962;9.768;2024-01-30T12:44:06;6.10;;;4.30;;
38779;SDS011;29273;49.962;9.768;2024-01-30T12:46:33;6.10;;;4.20;;
38779;SDS011;29273;49.962;9.768;2024-01-30T12:48:59;7.30;;;4.18;;
38779;SDS011;29273;49.962;9.768;2024-01-30T12:51:25;6.22;;;4.32;;
38779;SDS011;29273;49.962;9.768;2024-01-30T12:53:51;5.82;;;4.03;;
38779;SDS011;29273;49.962;9.768;2024-01-30T12:56:16;4.78;;;4.18;;
38779;SDS011;29273;49.962;9.768;2024-01-30T12:58:41;5.35;;;4.35;;
38779;SDS011;29273;49.962;9.768;2024-01-30T13:01:08;5.72;;;4.20;;
38779;SDS011;29273;49.962;9.768;2024-01-30T13:03:34;4.80;;;4.10;;
38779;SDS011;29273;49.962;9.768;2024-01-30T13:06:00;7.93;;;4.20;;
38779;SDS011;29273;49.962;9.768;2024-01-30T13:08:25;5.68;;;3.92;;
38779;SDS011;29273;49.962;9.768;2024-01-30T13:10:51;5.32;;;4.00;;
38779;SDS011;29273;49.962;9.768;2024-01-30T13:13:16;5.38;;;4.35;;
38779;SDS011;29273;49.962;9.768;2024-01-30T13:15:42;5.82;;;4.32;;
38779;SDS011;29273;49.962;9.768;2024-01-30T13:18:07;4.95;;;4.18;;
38779;SDS011;29273;49.962;9.768;2024-01-30T13:20:33;5.72;;;4.40;;
38779;SDS011;29273;49.962;9.768;2024-01-30T13:22:58;5.47;;;4.53;;
38779;SDS011;29273;49.962;9.768;2024-01-30T13:25:24;5.63;;;4.47;;
38779;SDS011;29273;49.962;9.768;2024-01-30T13:27:49;6.13;;;4.38;;
38779;SDS011;29273;49.962;9.768;2024-01-30T13:30:15;6.53;;;4.63;;
38779;SDS011;29273;49.962;9.768;2024-01-30T13:32:40;6.47;;;4.32;;
38779;SDS011;29273;49.962;9.768;2024-01-30T13:35:09;6.55;;;4.70;;
38779;SDS011;29273;49.962;9.768;2024-01-30T13:37:34;6.28;;;4.50;;
38779;SDS011;29273;49.962;9.768;2024-01-30T13:40:01;6.15;;;4.75;;
38779;SDS011;29273;49.962;9.768;2024-01-30T13:42:27;6.28;;;4.70;;
38779;SDS011;29273;49.962;9.768;2024-01-30T13:44:53;5.57;;;4.32;;
38779;SDS011;29273;49.962;9.768;2024-01-30T13:47:18;5.32;;;4.15;;
38779;SDS011;29273;49.962;9.768;2024-01-30T13:49:46;8.20;;;4.70;;
38779;SDS011;29273;49.962;9.768;2024-01-30T13:52:12;6.25;;;4.88;;
38779;SDS011;29273;49.962;9.768;2024-01-30T13:54:38;6.22;;;4.85;;
38779;SDS011;29273;49.962;9.768;2024-01-30T13:57:04;6.20;;;4.70;;
38779;SDS011;29273;49.962;9.768;2024-01-30T13:59:30;6.43;;;4.60;;
38779;SDS011;29273;49.962;9.768;2024-01-30T14:01:55;6.32;;;4.38;;
38779;SDS011;29273;49.962;9.768;2024-01-30T14:04:21;5.43;;;4.43;;
38779;SDS011;29273;49.962;9.768;2024-01-30T14:06:47;6.75;;;4.25;;
38779;SDS011;29273;49.962;9.768;2024-01-30T14:09:12;5.15;;;4.47;;
38779;SDS011;29273;49.962;9.768;2024-01-30T14:11:40;6.80;;;4.43;;
38779;SDS011;29273;49.962;9.768;2024-01-30T14:14:06;7.03;;;4.90;;
38779;SDS011;29273;49.962;9.768;2024-01-30T14:16:32;6.63;;;5.45;;
38779;SDS011;29273;49.962;9.768;2024-01-30T14:18:58;6.80;;;5.30;;
38779;SDS011;29273;49.962;9.768;2024-01-30T14:21:23;6.68;;;5.18;;
38779;SDS011;29273;49.962;9.768;2024-01-30T14:23:49;6.85;;;5.18;;
38779;SDS011;29273;49.962;9.768;2024-01-30T14:26:15;9.07;;;5.28;;
38779;SDS011;29273;49.962;9.768;2024-01-30T14:28:40;7.47;;;4.95;;
38779;SDS011;29273;49.962;9.768;2024-01-30T14:31:06;5.90;;;4.97;;
38779;SDS011;29273;49.962;9.768;2024-01-30T14:33:31;7.00;;;5.07;;
38779;SDS011;29273;49.962;9.768;2024-01-30T14:35:57;6.95;;;4.75;;
38779;SDS011;29273;49.962;9.768;2024-01-30T14:38:23;5.63;;;4.57;;
38779;SDS011;29273;49.962;9.768;2024-01-30T14:40:50;8.13;;;4.50;;
38779;SDS011;29273;49.962;9.768;2024-01-30T14:43:15;6.13;;;4.75;;
38779;SDS011;29273;49.962;9.768;2024-01-30T14:45:41;6.05;;;4.82;;
38779;SDS011;29273;49.962;9.768;2024-01-30T14:48:07;5.63;;;4.40;;
38779;SDS011;29273;49.962;9.768;2024-01-30T14:50:34;5.50;;;4.65;;